createdAt,value
2023-03-21T00:00:46.197Z,25.27
2023-03-21T00:03:13.254Z,28.98
2023-03-21T00:05:45.771Z,25.38
2023-03-21T00:08:12.817Z,25.52
2023-03-21T00:10:43.642Z,24.98
2023-03-21T00:13:28.359Z,26.20
2023-03-21T00:16:07.340Z,26.67
2023-03-21T00:18:46.598Z,27.70
2023-03-21T00:21:40.969Z,25.77
2023-03-21T00:24:02.492Z,25.85
2023-03-21T00:26:29.627Z,27.10
2023-03-21T00:28:56.613Z,25.60
2023-03-21T00:31:23.688Z,28.67
2023-03-21T00:33:50.809Z,27.00
2023-03-21T00:36:17.844Z,27.52
2023-03-21T00:38:44.900Z,27.45
2023-03-21T00:41:25.974Z,28.98
2023-03-21T00:43:58.694Z,31.83
2023-03-21T00:46:39.872Z,24.50
2023-03-21T00:49:09.749Z,25.77
2023-03-21T00:51:36.819Z,28.25
2023-03-21T00:54:05.915Z,26.40
2023-03-21T00:56:32.999Z,27.75
2023-03-21T00:59:00.031Z,25.95
2023-03-21T01:01:31.950Z,24.40
2023-03-21T01:04:04.717Z,26.65
2023-03-21T01:06:32.797Z,27.80
2023-03-21T01:08:59.952Z,26.23
2023-03-21T01:11:28.507Z,26.13
2023-03-21T01:14:07.343Z,28.20
2023-03-21T01:16:38.240Z,25.17
2023-03-21T01:19:15.045Z,26.67
2023-03-21T01:21:49.339Z,26.15
2023-03-21T01:24:16.308Z,25.13
2023-03-21T01:26:43.362Z,27.73
2023-03-21T01:29:10.407Z,27.40
2023-03-21T01:31:37.671Z,29.00
2023-03-21T01:34:06.767Z,26.10
2023-03-21T01:36:33.839Z,25.80
2023-03-21T01:39:06.701Z,24.15
2023-03-21T01:41:45.683Z,25.48
2023-03-21T01:44:19.067Z,23.63
2023-03-21T01:47:03.969Z,23.45
2023-03-21T01:49:46.891Z,24.38
2023-03-21T01:52:38.731Z,25.52
2023-03-21T01:55:13.385Z,24.23
2023-03-21T01:58:02.348Z,24.63
2023-03-21T02:00:33.999Z,25.17
2023-03-21T02:03:26.280Z,26.85
2023-03-21T02:06:12.741Z,26.20
2023-03-21T02:08:42.572Z,27.55
2023-03-21T02:11:13.805Z,26.52
2023-03-21T02:13:43.500Z,28.38
2023-03-21T02:16:47.618Z,27.45
2023-03-21T02:19:32.013Z,24.50
2023-03-21T02:22:20.764Z,28.67
2023-03-21T02:27:26.607Z,27.30
2023-03-21T02:30:26.546Z,30.52
2023-03-21T02:33:14.578Z,28.67
2023-03-21T02:35:54.451Z,31.02
2023-03-21T02:38:31.394Z,29.40
2023-03-21T02:41:19.607Z,24.88
2023-03-21T02:43:54.499Z,29.52
2023-03-21T02:46:33.208Z,30.70
2023-03-21T02:49:33.540Z,26.92
2023-03-21T02:52:12.172Z,26.57
2023-03-21T02:54:47.878Z,28.30
2023-03-21T02:59:54.603Z,25.88
2023-03-21T03:02:31.030Z,27.95
2023-03-21T03:04:58.813Z,32.15
2023-03-21T03:07:52.397Z,31.70
2023-03-21T03:10:25.527Z,27.27
2023-03-21T03:13:02.819Z,29.58
2023-03-21T03:15:36.324Z,27.25
2023-03-21T03:18:15.487Z,28.90
2023-03-21T03:21:19.264Z,26.52
2023-03-21T03:23:55.737Z,27.23
2023-03-21T03:26:37.264Z,29.60
2023-03-21T03:29:09.007Z,28.88
2023-03-21T03:32:05.579Z,28.60
2023-03-21T03:34:39.632Z,31.55
2023-03-21T03:37:11.472Z,30.02
2023-03-21T03:39:41.915Z,31.00
2023-03-21T03:42:27.222Z,31.20
2023-03-21T03:45:02.344Z,30.15
2023-03-21T03:47:47.685Z,30.23
2023-03-21T03:50:49.732Z,32.45
2023-03-21T03:53:22.335Z,30.40
2023-03-21T03:55:51.995Z,29.05
2023-03-21T03:58:23.906Z,31.90
2023-03-21T04:00:57.143Z,32.03
2023-03-21T04:03:24.279Z,30.40
2023-03-21T04:05:52.195Z,33.22
2023-03-21T04:08:19.319Z,35.00
2023-03-21T04:10:52.117Z,36.95
2023-03-21T04:13:19.912Z,32.67
2023-03-21T04:16:09.235Z,30.95
2023-03-21T04:18:36.412Z,31.02
2023-03-21T04:21:07.691Z,30.13
2023-03-21T04:23:35.879Z,28.52
2023-03-21T04:26:04.140Z,33.20
2023-03-21T04:28:38.085Z,32.58
2023-03-21T04:31:31.174Z,31.08
2023-03-21T04:34:12.649Z,36.30
2023-03-21T04:36:47.411Z,30.73
2023-03-21T04:39:15.369Z,37.42
2023-03-21T04:41:45.755Z,31.67
2023-03-21T04:44:13.713Z,35.20
2023-03-21T04:46:41.110Z,34.20
2023-03-21T04:49:09.231Z,31.30
2023-03-21T04:51:36.477Z,31.02
2023-03-21T04:56:36.157Z,33.10
2023-03-21T04:59:07.703Z,33.20
2023-03-21T05:01:34.656Z,30.30
2023-03-21T05:04:03.768Z,36.97
2023-03-21T05:06:33.258Z,33.88
2023-03-21T05:09:04.181Z,35.70
2023-03-21T05:11:33.019Z,32.33
2023-03-21T05:13:59.946Z,38.70
2023-03-21T05:16:30.896Z,34.42
2023-03-21T05:19:03.977Z,37.45
2023-03-21T05:21:41.542Z,32.85
2023-03-21T05:24:17.626Z,36.05
2023-03-21T05:26:45.003Z,37.25
2023-03-21T05:29:16.111Z,36.15
2023-03-21T05:31:45.893Z,39.10
2023-03-21T05:34:14.981Z,38.72
2023-03-21T05:36:42.582Z,44.13
2023-03-21T05:39:10.989Z,35.42
2023-03-21T05:41:43.030Z,41.15
2023-03-21T05:44:10.317Z,33.70
2023-03-21T05:46:38.666Z,38.97
2023-03-21T05:49:06.508Z,38.50
2023-03-21T05:51:33.823Z,38.58
2023-03-21T05:54:00.861Z,34.10
2023-03-21T05:56:27.818Z,41.83
2023-03-21T05:58:59.327Z,37.15
2023-03-21T06:01:27.249Z,36.58
2023-03-21T06:04:05.407Z,38.25
2023-03-21T06:06:33.602Z,39.88
2023-03-21T06:09:01.612Z,37.05
2023-03-21T06:11:31.473Z,37.42
2023-03-21T06:14:18.936Z,37.75
2023-03-21T06:16:54.042Z,42.47
2023-03-21T06:19:22.009Z,40.83
2023-03-21T06:22:02.005Z,40.60
2023-03-21T06:24:30.620Z,38.03
2023-03-21T06:26:57.634Z,39.95
2023-03-21T06:29:27.970Z,33.97
2023-03-21T06:31:54.969Z,36.97
2023-03-21T06:34:22.084Z,38.67
2023-03-21T06:36:48.960Z,35.60
2023-03-21T06:39:18.162Z,40.28
2023-03-21T06:41:46.073Z,34.15
2023-03-21T06:44:13.085Z,34.35
2023-03-21T06:46:49.262Z,36.63
2023-03-21T06:49:19.720Z,38.92
2023-03-21T06:51:46.894Z,41.10
2023-03-21T06:54:18.997Z,34.58
2023-03-21T06:56:58.867Z,38.47
2023-03-21T06:59:29.459Z,40.10
2023-03-21T07:02:02.792Z,37.22
2023-03-21T07:04:31.796Z,38.30
2023-03-21T07:06:58.801Z,39.63
2023-03-21T07:09:28.276Z,39.35
2023-03-21T07:11:59.465Z,37.63
2023-03-21T07:14:36.368Z,36.45
2023-03-21T07:17:04.130Z,41.35
2023-03-21T07:19:31.289Z,40.90
2023-03-21T07:22:00.368Z,36.83
2023-03-21T07:24:28.876Z,35.88
2023-03-21T07:26:56.302Z,39.00
2023-03-21T07:29:23.360Z,34.60
2023-03-21T07:31:50.506Z,37.38
2023-03-21T07:34:18.992Z,41.05
2023-03-21T07:36:46.264Z,36.50
2023-03-21T07:39:13.178Z,38.95
2023-03-21T07:41:40.368Z,37.65
2023-03-21T07:44:14.808Z,33.67
2023-03-21T07:46:41.839Z,36.28
2023-03-21T07:49:09.054Z,36.20
2023-03-21T07:51:36.128Z,34.63
2023-03-21T07:54:03.217Z,33.10
2023-03-21T07:56:30.258Z,32.42
2023-03-21T07:58:57.306Z,34.60
2023-03-21T08:01:24.546Z,31.63
2023-03-21T08:03:53.746Z,30.23
2023-03-21T08:06:21.084Z,35.53
2023-03-21T08:08:48.098Z,32.60
2023-03-21T08:11:15.163Z,35.35
2023-03-21T08:13:42.289Z,34.15
2023-03-21T08:16:09.626Z,29.35
2023-03-21T08:18:36.685Z,30.88
2023-03-21T08:21:03.974Z,32.35
2023-03-21T08:23:32.120Z,29.95
2023-03-21T08:25:59.108Z,30.45
2023-03-21T08:28:26.200Z,29.75
2023-03-21T08:30:53.395Z,34.85
2023-03-21T08:33:20.851Z,33.63
2023-03-21T08:35:47.833Z,34.13
2023-03-21T08:38:29.847Z,29.83
2023-03-21T08:40:59.152Z,31.67
2023-03-21T08:43:28.027Z,28.42
2023-03-21T08:45:55.843Z,28.70
2023-03-21T08:48:22.864Z,27.48
2023-03-21T08:50:50.077Z,25.95
2023-03-21T08:53:16.989Z,28.85
2023-03-21T08:55:44.767Z,29.73
2023-03-21T08:58:11.643Z,35.70
2023-03-21T09:00:38.590Z,29.52
2023-03-21T09:03:05.559Z,28.52
2023-03-21T09:05:32.523Z,29.02
2023-03-21T09:08:01.622Z,24.48
2023-03-21T09:10:28.659Z,28.48
2023-03-21T09:12:55.838Z,26.60
2023-03-21T09:15:28.875Z,26.15
2023-03-21T09:17:58.816Z,28.55
2023-03-21T09:20:30.912Z,24.48
2023-03-21T09:22:58.804Z,28.10
2023-03-21T09:25:29.505Z,26.45
2023-03-21T09:27:58.275Z,23.25
2023-03-21T09:30:26.483Z,31.38
2023-03-21T09:32:55.846Z,26.83
2023-03-21T09:35:24.357Z,26.17
2023-03-21T09:37:51.392Z,31.17
2023-03-21T09:40:30.800Z,21.50
2023-03-21T09:43:31.134Z,26.58
2023-03-21T09:46:22.241Z,25.13
2023-03-21T09:49:01.586Z,24.30
2023-03-21T09:51:31.716Z,28.30
2023-03-21T09:54:00.990Z,22.10
2023-03-21T09:56:28.224Z,25.90
2023-03-21T09:58:58.692Z,26.70
2023-03-21T10:01:28.534Z,20.85
2023-03-21T10:04:01.088Z,23.00
2023-03-21T10:06:31.871Z,23.27
2023-03-21T10:09:24.546Z,19.83
2023-03-21T10:11:57.750Z,26.10
2023-03-21T10:14:42.200Z,22.77
2023-03-21T10:17:23.741Z,20.02
2023-03-21T10:19:56.229Z,22.08
2023-03-21T10:22:23.245Z,25.77
2023-03-21T10:24:50.760Z,22.25
2023-03-21T10:27:17.716Z,21.70
2023-03-21T10:29:44.913Z,18.45
2023-03-21T10:32:15.927Z,21.10
2023-03-21T10:37:24.197Z,22.58
2023-03-21T10:39:52.588Z,23.48
2023-03-21T10:42:27.160Z,22.63
2023-03-21T10:44:55.213Z,20.70
2023-03-21T10:47:31.326Z,20.83
2023-03-21T10:52:50.612Z,14.68
2023-03-21T10:55:25.526Z,16.48
2023-03-21T10:58:00.208Z,17.13
2023-03-21T11:00:35.459Z,17.48
2023-03-21T11:03:03.645Z,15.52
2023-03-21T11:05:37.060Z,16.75
2023-03-21T11:08:11.828Z,14.77
2023-03-21T11:11:06.378Z,18.25
2023-03-21T11:13:37.360Z,14.60
2023-03-21T11:16:22.001Z,18.60
2023-03-21T11:18:52.993Z,16.73
2023-03-21T11:21:21.694Z,13.15
2023-03-21T11:23:49.662Z,14.95
2023-03-21T11:26:24.376Z,15.82
2023-03-21T11:28:54.141Z,13.60
2023-03-21T11:31:21.474Z,18.85
2023-03-21T11:33:57.133Z,14.00
2023-03-21T11:36:24.220Z,12.77
2023-03-21T11:38:52.981Z,18.50
2023-03-21T11:41:24.528Z,16.95
2023-03-21T11:43:52.069Z,13.30
2023-03-21T11:46:26.902Z,11.90
2023-03-21T11:48:54.254Z,14.55
2023-03-21T11:51:29.810Z,16.25
2023-03-21T11:54:19.622Z,10.77
2023-03-21T11:56:54.247Z,15.73
2023-03-21T11:59:34.270Z,9.60
2023-03-21T12:02:16.612Z,12.30
2023-03-21T12:05:01.249Z,12.07
2023-03-21T12:07:38.564Z,14.65
2023-03-21T12:10:23.468Z,9.52
2023-03-21T12:12:50.449Z,11.18
2023-03-21T12:15:34.201Z,13.00
2023-03-21T12:18:14.728Z,10.40
2023-03-21T12:20:47.721Z,12.50
2023-03-21T12:23:36.333Z,13.55
2023-03-21T12:26:03.296Z,11.60
2023-03-21T12:28:49.578Z,13.65
2023-03-21T12:31:27.779Z,13.25
2023-03-21T12:34:16.345Z,10.50
2023-03-21T12:36:55.402Z,13.68
2023-03-21T12:39:28.099Z,15.05
2023-03-21T12:42:21.028Z,11.27
2023-03-21T12:45:06.053Z,11.55
2023-03-21T12:47:33.257Z,10.98
2023-03-21T12:50:05.340Z,11.85
2023-03-21T12:52:37.491Z,10.52
2023-03-21T12:55:23.884Z,10.95
2023-03-21T12:57:57.849Z,9.65
2023-03-21T13:00:31.023Z,10.73
2023-03-21T13:03:20.956Z,13.48
2023-03-21T13:05:59.595Z,16.08
2023-03-21T13:08:55.119Z,12.45
2023-03-21T13:11:26.491Z,15.15
2023-03-21T13:14:00.707Z,11.00
2023-03-21T13:16:31.468Z,15.20
2023-03-21T13:19:17.301Z,11.40
2023-03-21T13:21:44.310Z,14.65
2023-03-21T13:24:26.286Z,17.55
2023-03-21T13:27:07.243Z,17.25
2023-03-21T13:29:41.883Z,17.65
2023-03-21T13:32:30.947Z,21.98
2023-03-21T13:35:04.511Z,16.23
2023-03-21T13:37:33.739Z,15.48
2023-03-21T13:40:15.054Z,14.50
2023-03-21T13:42:44.367Z,14.82
2023-03-21T13:45:12.325Z,16.92
2023-03-21T13:47:43.185Z,17.30
2023-03-21T13:50:23.475Z,15.25
2023-03-21T13:53:02.425Z,13.68
2023-03-21T13:55:46.326Z,15.75
2023-03-21T13:58:37.251Z,13.35
2023-03-21T14:01:35.697Z,11.55
2023-03-21T14:04:20.175Z,12.88
2023-03-21T14:06:55.451Z,14.73
2023-03-21T14:09:30.509Z,14.20
2023-03-21T14:12:03.947Z,15.80
2023-03-21T14:14:46.549Z,15.73
2023-03-21T14:17:30.456Z,11.32
2023-03-21T14:20:01.099Z,13.80
2023-03-21T14:22:29.160Z,14.43
2023-03-21T14:25:00.275Z,17.77
2023-03-21T14:27:32.094Z,16.35
2023-03-21T14:29:59.383Z,12.75
2023-03-21T14:32:27.000Z,14.20
2023-03-21T14:34:54.993Z,14.60
2023-03-21T14:37:28.859Z,14.35
2023-03-21T14:40:09.123Z,12.45
2023-03-21T14:42:36.616Z,14.80
2023-03-21T14:45:37.070Z,10.52
2023-03-21T14:48:06.516Z,13.27
2023-03-21T14:50:42.570Z,9.88
2023-03-21T14:53:21.464Z,12.75
2023-03-21T14:55:52.386Z,15.30
2023-03-21T14:58:19.744Z,15.45
2023-03-21T15:00:53.137Z,11.02
2023-03-21T15:03:21.164Z,11.40
2023-03-21T15:05:48.192Z,11.15
2023-03-21T15:08:16.085Z,11.02
2023-03-21T15:10:43.264Z,13.98
2023-03-21T15:13:20.400Z,11.73
2023-03-21T15:15:47.512Z,10.88
2023-03-21T15:18:20.944Z,9.68
2023-03-21T15:20:48.371Z,11.52
2023-03-21T15:23:25.911Z,9.02
2023-03-21T15:25:52.931Z,8.82
2023-03-21T15:28:19.865Z,11.48
2023-03-21T15:30:48.967Z,7.80
2023-03-21T15:33:16.088Z,9.20
2023-03-21T15:35:46.203Z,8.32
2023-03-21T15:38:30.563Z,9.82
2023-03-21T15:41:16.978Z,9.70
2023-03-21T15:43:43.958Z,13.15
2023-03-21T15:46:18.883Z,11.98
2023-03-21T15:48:45.957Z,9.30
2023-03-21T15:51:22.867Z,10.30
2023-03-21T15:53:51.932Z,8.70
2023-03-21T15:56:21.616Z,8.35
2023-03-21T15:58:49.013Z,8.75
2023-03-21T16:01:20.374Z,8.18
2023-03-21T16:04:11.109Z,7.22
2023-03-21T16:06:39.634Z,8.18
2023-03-21T16:09:14.347Z,18.35
2023-03-21T16:11:52.338Z,6.50
2023-03-21T16:14:20.258Z,7.20
2023-03-21T16:16:47.728Z,10.68
2023-03-21T16:19:15.025Z,8.25
2023-03-21T16:21:42.301Z,6.53
2023-03-21T16:24:11.663Z,9.35
2023-03-21T16:26:43.688Z,8.40
2023-03-21T16:29:12.111Z,9.65
2023-03-21T16:31:39.237Z,14.80
2023-03-21T16:34:07.130Z,7.63
2023-03-21T16:36:37.275Z,8.80
2023-03-21T16:39:26.394Z,8.23
2023-03-21T16:41:53.496Z,7.78
2023-03-21T16:44:20.456Z,9.63
2023-03-21T16:46:47.618Z,11.23
2023-03-21T16:49:23.895Z,7.63
2023-03-21T16:54:17.916Z,6.93
2023-03-21T16:56:50.669Z,10.52
2023-03-21T16:59:17.715Z,7.78
2023-03-21T17:01:46.326Z,10.90
2023-03-21T17:04:13.529Z,8.95
2023-03-21T17:06:45.664Z,8.05
2023-03-21T17:09:13.762Z,10.50
2023-03-21T17:11:41.743Z,13.10
2023-03-21T17:14:09.662Z,8.43
2023-03-21T17:16:36.697Z,8.13
2023-03-21T17:19:07.147Z,7.75
2023-03-21T17:21:34.128Z,8.75
2023-03-21T17:24:01.112Z,8.85
2023-03-21T17:26:28.713Z,10.45
2023-03-21T17:28:59.961Z,7.82
2023-03-21T17:31:27.834Z,10.25
2023-03-21T17:33:55.056Z,6.97
2023-03-21T17:36:36.085Z,6.78
2023-03-21T17:39:04.587Z,8.27
2023-03-21T17:41:31.505Z,11.55
2023-03-21T17:43:58.526Z,10.23
2023-03-21T17:46:27.263Z,8.25
2023-03-21T17:48:54.195Z,9.35
2023-03-21T17:51:23.120Z,9.32
2023-03-21T17:53:51.192Z,6.80
2023-03-21T17:56:40.061Z,5.57
2023-03-21T17:59:08.081Z,6.82
2023-03-21T18:01:35.598Z,6.72
2023-03-21T18:04:04.996Z,9.55
2023-03-21T18:06:33.809Z,6.22
2023-03-21T18:09:00.902Z,9.00
2023-03-21T18:11:28.193Z,5.53
2023-03-21T18:14:06.779Z,9.38
2023-03-21T18:16:42.335Z,8.82
2023-03-21T18:19:10.963Z,8.30
2023-03-21T18:21:40.661Z,7.20
2023-03-21T18:24:07.783Z,8.10
2023-03-21T18:26:34.804Z,7.03
2023-03-21T18:32:04.400Z,11.15
2023-03-21T18:34:32.831Z,9.10
2023-03-21T18:36:59.785Z,7.15
2023-03-21T18:39:29.384Z,6.43
2023-03-21T18:42:00.875Z,9.15
2023-03-21T18:44:30.022Z,10.25
2023-03-21T18:46:57.585Z,8.13
2023-03-21T18:50:05.905Z,12.35
2023-03-21T18:52:12.299Z,7.57
2023-03-21T18:54:39.627Z,7.93
2023-03-21T18:57:34.647Z,7.47
2023-03-21T18:59:54.161Z,7.80
2023-03-21T19:02:21.390Z,7.60
2023-03-21T19:04:48.618Z,6.25
2023-03-21T19:07:15.726Z,8.23
2023-03-21T19:10:05.233Z,8.65
2023-03-21T19:12:30.477Z,10.50
2023-03-21T19:14:57.559Z,7.13
2023-03-21T19:18:15.706Z,7.60
2023-03-21T19:20:13.970Z,7.72
2023-03-21T19:22:41.424Z,8.13
2023-03-21T19:25:09.311Z,10.68
2023-03-21T19:27:37.153Z,10.23
2023-03-21T19:30:14.424Z,8.32
2023-03-21T19:32:43.651Z,9.07
2023-03-21T19:35:10.718Z,8.25
2023-03-21T19:37:37.694Z,10.73
2023-03-21T19:40:06.024Z,9.98
2023-03-21T19:42:33.703Z,9.73
2023-03-21T19:45:01.210Z,11.05
2023-03-21T19:47:28.617Z,8.90
2023-03-21T19:52:46.293Z,9.68
2023-03-21T19:55:14.975Z,10.65
2023-03-21T19:57:55.252Z,10.80
2023-03-21T20:00:25.409Z,10.35
2023-03-21T20:02:52.562Z,10.90
2023-03-21T20:05:25.423Z,10.85
2023-03-21T20:07:57.277Z,10.52
2023-03-21T20:10:27.572Z,13.23
2023-03-21T20:12:55.153Z,11.63
2023-03-21T20:15:24.911Z,11.82
2023-03-21T20:17:54.043Z,12.60
2023-03-21T20:20:21.373Z,11.32
2023-03-21T20:25:43.167Z,10.07
2023-03-21T20:28:17.232Z,11.25
2023-03-21T20:30:56.841Z,9.88
2023-03-21T20:33:24.478Z,10.68
2023-03-21T20:38:43.365Z,10.50
2023-03-21T20:41:10.339Z,13.35
2023-03-21T20:44:24.455Z,11.50
2023-03-21T20:46:24.413Z,13.07
2023-03-21T20:48:51.435Z,11.05
2023-03-21T20:54:05.633Z,13.88
2023-03-21T20:56:32.910Z,14.55
2023-03-21T20:59:15.327Z,12.63
2023-03-21T21:01:45.419Z,12.57
2023-03-21T21:04:15.052Z,12.45
2023-03-21T21:06:42.242Z,14.82
2023-03-21T21:09:09.380Z,17.15
2023-03-21T21:14:23.408Z,17.35
2023-03-21T21:16:51.576Z,16.40
2023-03-21T21:19:21.807Z,14.07
2023-03-21T21:21:49.872Z,19.25
2023-03-21T21:24:16.843Z,13.65
2023-03-21T21:26:46.458Z,14.50
2023-03-21T21:29:17.203Z,18.63
2023-03-21T21:31:47.113Z,15.27
2023-03-21T21:34:15.769Z,16.52
2023-03-21T21:36:44.950Z,16.23
2023-03-21T21:39:15.960Z,15.15
2023-03-21T21:41:43.221Z,17.67
2023-03-21T21:44:11.050Z,14.90
2023-03-21T21:46:38.721Z,17.10
2023-03-21T21:49:05.642Z,18.00
2023-03-21T21:51:34.153Z,15.80
2023-03-21T21:54:03.914Z,15.57
2023-03-21T21:56:38.487Z,16.02
2023-03-21T21:59:05.603Z,15.57
2023-03-21T22:01:38.619Z,14.95
2023-03-21T22:04:10.850Z,16.52
2023-03-21T22:06:37.823Z,14.27
2023-03-21T22:09:07.044Z,14.05
2023-03-21T22:11:34.191Z,14.88
2023-03-21T22:14:01.157Z,14.32
2023-03-21T22:16:28.265Z,14.30
2023-03-21T22:18:55.336Z,14.73
2023-03-21T22:21:22.255Z,13.85
2023-03-21T22:23:49.344Z,14.88
2023-03-21T22:26:16.563Z,17.35
2023-03-21T22:28:43.800Z,16.30
2023-03-21T22:31:15.790Z,14.13
2023-03-21T22:33:45.891Z,14.13
2023-03-21T22:36:12.834Z,14.88
2023-03-21T22:38:41.991Z,14.32
2023-03-21T22:41:09.057Z,13.63
2023-03-21T22:43:36.102Z,14.10
2023-03-21T22:46:03.558Z,14.98
2023-03-21T22:48:30.958Z,13.90
2023-03-21T22:50:58.664Z,14.32
2023-03-21T22:53:25.770Z,15.60
2023-03-21T22:55:52.741Z,13.07
2023-03-21T22:58:19.784Z,13.55
2023-03-21T23:00:47.384Z,15.10
2023-03-21T23:03:16.746Z,14.45
2023-03-21T23:05:44.085Z,15.13
2023-03-21T23:08:11.448Z,14.60
2023-03-21T23:10:39.578Z,13.95
2023-03-21T23:13:06.707Z,13.50
2023-03-21T23:15:33.777Z,14.18
2023-03-21T23:18:00.879Z,15.57
2023-03-21T23:20:27.964Z,18.27
2023-03-21T23:22:54.974Z,13.82
2023-03-21T23:25:24.884Z,13.85
2023-03-21T23:27:52.037Z,14.18
2023-03-21T23:30:19.160Z,17.92
2023-03-21T23:32:46.338Z,12.95
2023-03-21T23:35:13.589Z,13.38
2023-03-21T23:37:42.495Z,15.30
2023-03-21T23:40:10.422Z,13.02
2023-03-21T23:42:37.425Z,13.50
2023-03-21T23:45:05.059Z,16.65
2023-03-21T23:47:32.122Z,15.63
2023-03-21T23:50:02.212Z,15.32
2023-03-21T23:52:30.281Z,16.27
2023-03-21T23:54:57.230Z,14.57
2023-03-21T23:57:24.209Z,14.20
2023-03-21T23:59:54.390Z,15.15
